Strona główna
METAR-TAF:

METAR-TAF

Lotnisko :

Port lotniczy Svalbard

Longyearbyen, Norwegia

Szerokość geograficzna: 78-15N, Długość geograficzna: 015-28E, wysokość: 2 m

Aktualna obserwacja pogody

Raport powstał 35 minut temu, godzina 08:50 UTC
Wiatr 21 kt od południowy wschód
Temperatura -15°C
Wilgotność 60%
Ciśnienie 1004 hPa
Widzialność 10 km lub więcej
zamieć niska śnieżna

METAR: ENSB 230850Z 13021KT 9999 DRSN NSC M15/M21 Q1004 TEMPO 13021G31KT RMK WIND 1400FT 13018G29KT

czas: 10:25 (09:25 UTC)

Prognoza

Prognoza ważna od 23 godzina 06 UTC do 24 godzina 06 UTC
Wiatr 20 kt od południowy wschód
Widzialność 10 km lub więcej
Mało chmury na wysokości 1500 ft
Przejściowo
od 23 godzina 06 UTC do 23 godzina 12 UTC
Wiatr 25 kt od wschodnio-południowy wschód w porywach dochodzący do 35 kt
Przejściowo
od 23 godzina 12 UTC do 24 godzina 06 UTC
Wiatr 30 kt od wschodnio-południowy wschód w porywach dochodzący do 40 kt

TAF: ENSB 2306/2406 14020KT 9999 FEW015 TEMPO 2306/2312 12025G35KT TEMPO 2312/2406 12030G40KT

Obserwacja i prognoza pogody dla ponad 4000 lotnisk (raport METAR i TAF).

Dostępne stacje oznaczono żółtymi i czerwonymi punktami na mapie.

Najedź kursorem aby zobaczyć nazwę stacji.

Kliknij aby zobaczyć obserwacje i prognozy pogody.

Aby zmienić mapę: kliknij na zielony przycisk z czarnym krzyżykiem, aby powiększyć; na zielony przycisk z myślnikiem, aby pomniejszyć; na zielone strzałki, aby przejść do map sąsiednich.


METAR-TAF: